Time;durP1;ratioP1;P1;durP2;ratioP2;P2;SDS_P1;SDS_P2;PMS_P1;PMS_P2;Temp;Humidity;BMP_temperature;BMP_pressure;BME280_temperature;BME280_humidity;BME280_pressure;Samples;Min_cycle;Max_cycle;Signal;HPM_P1;HPM_P2
2023/03/04 00:01:37;;;;;;;8.67;6.53;;;4.60;99.90;;;;;;5075014;28;20210;-72
2023/03/04 00:04:03;;;;;;;8.33;6.03;;;4.60;99.90;;;;;;5074494;28;20193;-74
2023/03/04 00:06:28;;;;;;;9.37;6.63;;;4.60;99.90;;;;;;5075346;28;20177;-72
2023/03/04 00:08:54;;;;;;;9.80;6.37;;;4.50;99.90;;;;;;5073921;28;20308;-71
2023/03/04 00:11:20;;;;;;;9.90;6.97;;;4.50;99.90;;;;;;5074735;28;20507;-72
2023/03/04 00:13:46;;;;;;;10.87;6.87;;;4.50;99.90;;;;;;5074661;28;20513;-73
2023/03/04 00:16:11;;;;;;;9.07;7.10;;;4.50;99.90;;;;;;5074582;28;20579;-71
2023/03/04 00:18:37;;;;;;;10.33;7.40;;;4.50;99.90;;;;;;5074851;28;20169;-72
2023/03/04 00:21:03;;;;;;;11.83;8.07;;;4.50;99.90;;;;;;5073161;28;20193;-74
2023/03/04 00:23:29;;;;;;;12.40;8.33;;;4.50;99.90;;;;;;5074947;28;20246;-73
2023/03/04 00:25:54;;;;;;;12.33;8.73;;;4.50;99.90;;;;;;5078490;28;20201;-73
2023/03/04 00:28:20;;;;;;;13.27;8.53;;;4.50;99.90;;;;;;5076485;28;20204;-73
2023/03/04 00:30:46;;;;;;;12.47;8.13;;;4.60;99.90;;;;;;5074745;28;20295;-75
2023/03/04 00:33:11;;;;;;;13.17;9.37;;;4.60;99.90;;;;;;5072746;28;20198;-73
2023/03/04 00:35:37;;;;;;;12.17;9.30;;;4.50;99.90;;;;;;5074693;28;20670;-72
2023/03/04 00:38:03;;;;;;;12.10;9.47;;;4.50;99.90;;;;;;5074492;28;20165;-74
2023/03/04 00:40:29;;;;;;;12.83;8.67;;;4.50;99.90;;;;;;5074864;28;20515;-73
2023/03/04 00:42:55;;;;;;;11.57;8.70;;;4.50;99.90;;;;;;5074274;28;20233;-71
2023/03/04 00:45:20;;;;;;;14.03;9.20;;;4.50;99.90;;;;;;5074220;28;20272;-73
2023/03/04 00:47:46;;;;;;;14.27;9.40;;;4.30;99.90;;;;;;5074618;28;20172;-74
2023/03/04 00:50:12;;;;;;;12.70;8.80;;;4.30;99.90;;;;;;5074285;28;20172;-73
2023/03/04 00:52:38;;;;;;;12.43;8.10;;;4.20;99.90;;;;;;5073996;28;20191;-72
2023/03/04 00:55:05;;;;;;;16.77;7.73;;;4.20;99.90;;;;;;5072596;28;20179;-73
2023/03/04 00:57:30;;;;;;;15.80;8.57;;;4.20;99.90;;;;;;5074247;28;20194;-72
2023/03/04 00:59:56;;;;;;;12.20;8.57;;;4.20;99.90;;;;;;5074246;28;20611;-76
2023/03/04 01:02:22;;;;;;;13.93;8.73;;;4.30;99.90;;;;;;5072507;28;20215;-73
2023/03/04 01:04:47;;;;;;;15.73;9.07;;;4.20;99.90;;;;;;5072369;28;20546;-73
2023/03/04 01:07:13;;;;;;;14.00;8.40;;;4.20;99.90;;;;;;5073933;28;20179;-75
2023/03/04 01:09:39;;;;;;;13.83;9.40;;;4.20;99.90;;;;;;5073352;28;20212;-72
2023/03/04 01:12:05;;;;;;;12.27;8.83;;;4.10;99.90;;;;;;5073615;28;20177;-80
2023/03/04 01:14:31;;;;;;;16.07;8.83;;;4.10;99.90;;;;;;5074590;28;20226;-79
2023/03/04 01:16:56;;;;;;;14.27;9.27;;;4.00;99.90;;;;;;5074106;28;20181;-77
2023/03/04 01:19:22;;;;;;;14.87;9.13;;;3.90;99.90;;;;;;5074102;28;20240;-76
2023/03/04 01:21:48;;;;;;;13.63;9.07;;;3.90;99.90;;;;;;5073731;28;20209;-77
2023/03/04 01:24:14;;;;;;;13.63;9.93;;;3.80;99.90;;;;;;5073275;28;20206;-79
2023/03/04 01:26:39;;;;;;;15.00;10.90;;;3.80;99.90;;;;;;5073432;28;20167;-77
2023/03/04 01:29:05;;;;;;;15.40;10.07;;;3.80;99.90;;;;;;5072090;28;20175;-75
2023/03/04 01:31:31;;;;;;;16.20;10.10;;;3.70;99.90;;;;;;5073088;28;20175;-74
2023/03/04 01:33:56;;;;;;;14.07;9.30;;;3.80;99.90;;;;;;5071749;28;20200;-79
2023/03/04 01:36:22;;;;;;;14.20;10.57;;;3.60;99.90;;;;;;5073329;28;20251;-77
2023/03/04 01:38:48;;;;;;;13.73;9.83;;;3.70;99.90;;;;;;5073363;28;20182;-79
2023/03/04 01:41:24;;;;;;;14.93;9.90;;;3.70;99.90;;;;;;5074154;28;20304;-80
2023/03/04 01:43:50;;;;;;;15.97;10.53;;;3.60;99.90;;;;;;5073729;28;20693;-74
2023/03/04 01:46:16;;;;;;;13.73;9.63;;;3.60;99.90;;;;;;5074356;28;20174;-79
2023/03/04 01:48:43;;;;;;;14.33;10.07;;;3.50;99.90;;;;;;5074906;28;20171;-76
2023/03/04 01:51:17;;;;;;;12.10;9.17;;;3.60;99.90;;;;;;5081028;28;20169;-74
2023/03/04 01:53:45;;;;;;;13.00;8.83;;;3.50;99.90;;;;;;5079142;28;20171;-78
2023/03/04 01:56:15;;;;;;;16.03;9.67;;;3.50;99.90;;;;;;5075796;28;20193;-78
2023/03/04 01:58:42;;;;;;;15.00;10.00;;;3.50;99.90;;;;;;5079962;28;20171;-75
2023/03/04 02:01:10;;;;;;;12.40;9.70;;;3.50;99.90;;;;;;5086545;28;20175;-73
2023/03/04 02:03:36;;;;;;;15.13;10.20;;;3.40;99.90;;;;;;5079587;28;20187;-74
2023/03/04 02:06:02;;;;;;;17.60;10.27;;;3.50;99.90;;;;;;5074640;28;20600;-73
2023/03/04 02:08:29;;;;;;;13.40;9.70;;;3.40;99.90;;;;;;5073535;28;20258;-74
2023/03/04 02:10:55;;;;;;;13.03;9.30;;;3.50;99.90;;;;;;5073293;28;20508;-73
2023/03/04 02:13:21;;;;;;;19.80;9.77;;;3.50;99.90;;;;;;5071152;28;20297;-74
2023/03/04 02:15:47;;;;;;;12.73;9.13;;;3.40;99.90;;;;;;5073057;28;20206;-78
2023/03/04 02:18:17;;;;;;;12.47;9.17;;;3.30;99.90;;;;;;5073108;28;20181;-76
2023/03/04 02:21:02;;;;;;;13.73;9.27;;;3.20;99.90;;;;;;5072724;28;20174;-71
2023/03/04 02:23:55;;;;;;;12.10;9.03;;;3.20;99.90;;;;;;5071804;28;20196;-73
2023/03/04 02:26:31;;;;;;;10.10;7.73;;;3.10;99.90;;;;;;5071134;28;20220;-72
2023/03/04 02:28:59;;;;;;;13.07;9.60;;;3.20;99.90;;;;;;5072778;28;20173;-75
2023/03/04 02:31:34;;;;;;;11.23;9.40;;;3.20;99.90;;;;;;5072814;28;20479;-72
2023/03/04 02:34:03;;;;;;;10.87;8.90;;;3.10;99.90;;;;;;5071934;28;20176;-74
2023/03/04 02:36:30;;;;;;;12.60;9.27;;;3.10;99.90;;;;;;5072702;28;20175;-74
2023/03/04 02:39:03;;;;;;;11.60;9.23;;;3.10;99.90;;;;;;5072346;28;20163;-81
2023/03/04 02:41:29;;;;;;;14.83;9.33;;;3.10;99.90;;;;;;5072177;28;20300;-76
2023/03/04 02:43:55;;;;;;;12.40;9.30;;;3.00;99.90;;;;;;5071387;28;20215;-76
2023/03/04 02:46:22;;;;;;;12.93;8.77;;;3.10;99.90;;;;;;5072562;28;20190;-73
2023/03/04 02:48:49;;;;;;;12.37;9.23;;;3.10;99.90;;;;;;5072391;28;20554;-77
2023/03/04 02:51:15;;;;;;;14.43;9.07;;;3.10;99.90;;;;;;5072152;28;20168;-76
2023/03/04 02:53:41;;;;;;;13.27;9.00;;;3.10;99.90;;;;;;5071569;28;20273;-81
2023/03/04 02:56:07;;;;;;;11.13;7.90;;;3.00;99.90;;;;;;5071965;28;20286;-75
2023/03/04 02:58:33;;;;;;;11.73;8.30;;;3.00;99.90;;;;;;5072059;28;20508;-76
2023/03/04 03:00:59;;;;;;;13.20;9.00;;;3.00;99.90;;;;;;5071682;28;20627;-77
2023/03/04 03:03:24;;;;;;;12.43;8.83;;;3.10;99.90;;;;;;5071263;28;20230;-75
2023/03/04 03:05:51;;;;;;;13.20;8.97;;;3.00;99.90;;;;;;5071436;28;20159;-74
2023/03/04 03:08:16;;;;;;;11.27;8.90;;;3.00;99.90;;;;;;5071489;28;20206;-74
2023/03/04 03:10:42;;;;;;;15.60;9.33;;;2.90;99.90;;;;;;5071664;28;20195;-75
2023/03/04 03:13:08;;;;;;;12.87;9.33;;;2.80;99.90;;;;;;5071058;28;20710;-78
2023/03/04 03:15:34;;;;;;;13.07;8.90;;;2.80;99.90;;;;;;5071858;28;20512;-77
2023/03/04 03:18:00;;;;;;;15.00;9.70;;;2.80;99.90;;;;;;5072002;28;20593;-75
2023/03/04 03:20:25;;;;;;;13.07;8.83;;;2.90;99.90;;;;;;5071901;28;20171;-77
2023/03/04 03:22:51;;;;;;;12.30;9.07;;;2.90;99.90;;;;;;5071325;28;20678;-75
2023/03/04 03:25:17;;;;;;;10.83;8.20;;;2.80;99.90;;;;;;5071314;28;20174;-75
2023/03/04 03:27:43;;;;;;;10.53;7.80;;;2.90;99.90;;;;;;5071524;28;20182;-76
2023/03/04 03:30:11;;;;;;;13.40;8.90;;;2.90;99.90;;;;;;5072265;28;20175;-73
2023/03/04 03:32:37;;;;;;;12.00;8.57;;;2.80;99.90;;;;;;5072248;28;20167;-72
2023/03/04 03:35:03;;;;;;;13.73;9.07;;;2.80;99.90;;;;;;5080799;28;20235;-74
2023/03/04 03:37:29;;;;;;;10.57;8.17;;;2.80;99.90;;;;;;5086019;28;20170;-80
2023/03/04 03:39:55;;;;;;;11.47;8.50;;;2.80;99.90;;;;;;5073216;28;20263;-78
2023/03/04 03:42:20;;;;;;;13.30;8.90;;;2.70;99.90;;;;;;5072235;28;20258;-80
2023/03/04 03:44:46;;;;;;;12.27;8.27;;;2.70;99.90;;;;;;5071555;28;20508;-74
2023/03/04 03:47:12;;;;;;;9.60;8.27;;;2.60;99.90;;;;;;5071524;28;20174;-77
2023/03/04 03:49:37;;;;;;;12.23;8.57;;;2.70;99.90;;;;;;5071565;28;20259;-75
2023/03/04 03:52:03;;;;;;;12.70;9.10;;;2.60;99.90;;;;;;5071515;28;20265;-76
2023/03/04 03:54:29;;;;;;;11.87;9.20;;;2.50;99.90;;;;;;5084437;28;20719;-73
2023/03/04 03:56:55;;;;;;;13.13;8.77;;;2.50;99.90;;;;;;5079439;28;20174;-74
2023/03/04 03:59:22;;;;;;;13.00;8.87;;;2.50;99.90;;;;;;5072453;28;20500;-76
2023/03/04 04:01:48;;;;;;;14.40;9.47;;;2.40;99.90;;;;;;5071294;28;20615;-75
2023/03/04 04:04:14;;;;;;;12.30;8.53;;;2.40;99.90;;;;;;5069278;28;20634;-77
2023/03/04 04:06:40;;;;;;;13.93;9.00;;;2.40;99.90;;;;;;5071371;28;20186;-73
2023/03/04 04:09:06;;;;;;;12.90;9.63;;;2.50;99.90;;;;;;5069776;28;20170;-74
2023/03/04 04:11:31;;;;;;;14.40;9.17;;;2.50;99.90;;;;;;5070750;28;20526;-73
2023/03/04 04:13:57;;;;;;;16.67;9.20;;;2.50;99.90;;;;;;5070461;28;20174;-74
2023/03/04 04:16:23;;;;;;;14.40;8.87;;;2.40;99.90;;;;;;5070995;28;20581;-73
2023/03/04 04:18:48;;;;;;;13.00;8.70;;;2.40;99.90;;;;;;5071037;28;20172;-74
2023/03/04 04:21:14;;;;;;;14.37;9.83;;;2.40;99.90;;;;;;5069405;28;20194;-75
2023/03/04 04:23:40;;;;;;;13.50;9.77;;;2.40;99.90;;;;;;5070360;28;20232;-73
2023/03/04 04:26:06;;;;;;;15.40;9.43;;;2.30;99.90;;;;;;5070818;28;20178;-72
2023/03/04 04:28:32;;;;;;;15.17;9.77;;;2.30;99.90;;;;;;5069776;28;20247;-74
2023/03/04 04:30:57;;;;;;;20.20;10.17;;;2.40;99.90;;;;;;5070993;28;20171;-73
2023/03/04 04:33:23;;;;;;;14.47;10.40;;;2.30;99.90;;;;;;5070687;28;20230;-74
2023/03/04 04:35:49;;;;;;;17.47;10.50;;;2.30;99.90;;;;;;5069105;28;20534;-76
2023/03/04 04:38:14;;;;;;;17.17;10.87;;;2.20;99.90;;;;;;5070727;28;20227;-79
2023/03/04 04:40:41;;;;;;;17.87;11.53;;;2.20;99.90;;;;;;5070772;28;20200;-76
2023/03/04 04:43:07;;;;;;;15.13;10.60;;;2.10;99.90;;;;;;5068962;28;20238;-76
2023/03/04 04:45:33;;;;;;;17.00;11.67;;;2.00;99.90;;;;;;5071627;28;20181;-78
2023/03/04 04:47:59;;;;;;;17.00;11.23;;;1.90;99.90;;;;;;5073386;28;20182;-78
2023/03/04 04:50:25;;;;;;;17.03;12.20;;;2.00;99.90;;;;;;5073284;28;20309;-76
2023/03/04 04:52:52;;;;;;;19.57;12.77;;;1.90;99.90;;;;;;5074245;28;20841;-75
2023/03/04 04:55:18;;;;;;;17.43;12.07;;;1.90;99.90;;;;;;5073996;28;20601;-78
2023/03/04 04:57:44;;;;;;;16.53;11.60;;;1.90;99.90;;;;;;5074702;28;20184;-75
2023/03/04 05:00:10;;;;;;;16.73;10.97;;;1.80;99.90;;;;;;5074291;28;20175;-76
2023/03/04 05:02:36;;;;;;;18.73;12.23;;;1.70;99.90;;;;;;5074365;28;20235;-76
2023/03/04 05:05:04;;;;;;;15.67;10.50;;;1.70;99.90;;;;;;5072290;28;20220;-73
2023/03/04 05:07:30;;;;;;;21.13;11.07;;;1.60;99.90;;;;;;5074678;28;20190;-79
2023/03/04 05:09:56;;;;;;;18.93;11.00;;;1.60;99.90;;;;;;5082742;28;20191;-73
2023/03/04 05:12:22;;;;;;;18.43;11.53;;;1.60;99.90;;;;;;5082371;28;20194;-73
2023/03/04 05:14:47;;;;;;;16.67;11.47;;;1.80;99.90;;;;;;5073194;28;20188;-74
2023/03/04 05:17:13;;;;;;;14.57;11.23;;;1.70;99.90;;;;;;5074261;28;20497;-81
2023/03/04 05:19:39;;;;;;;18.27;11.80;;;1.60;99.90;;;;;;5073772;28;20178;-78
2023/03/04 05:22:04;;;;;;;18.60;11.17;;;1.60;99.90;;;;;;5074002;28;20254;-74
2023/03/04 05:24:30;;;;;;;15.67;10.73;;;1.70;99.90;;;;;;5073401;28;20180;-73
2023/03/04 05:26:56;;;;;;;18.63;11.37;;;1.70;99.90;;;;;;5073705;28;20272;-74
2023/03/04 05:29:22;;;;;;;19.43;11.83;;;1.70;99.90;;;;;;5072814;28;20699;-72
2023/03/04 05:31:47;;;;;;;14.00;10.13;;;1.60;99.90;;;;;;5076553;28;20472;-77
2023/03/04 05:34:13;;;;;;;14.73;9.93;;;1.70;99.90;;;;;;5072661;28;20644;-78
2023/03/04 05:36:39;;;;;;;14.80;10.33;;;1.70;99.90;;;;;;5073540;28;20332;-77
2023/03/04 05:39:04;;;;;;;13.33;10.10;;;1.60;99.90;;;;;;5073575;28;20182;-77
2023/03/04 05:41:30;;;;;;;13.43;9.67;;;1.60;99.90;;;;;;5073607;28;20228;-80
2023/03/04 05:43:56;;;;;;;15.20;10.13;;;1.70;99.90;;;;;;5073004;28;20683;-75
2023/03/04 05:46:24;;;;;;;16.60;10.50;;;1.70;99.90;;;;;;5074106;28;20180;-80
2023/03/04 05:48:51;;;;;;;16.13;10.43;;;1.70;99.90;;;;;;5074212;28;20180;-79
2023/03/04 05:51:18;;;;;;;17.63;10.30;;;1.70;99.90;;;;;;5074368;28;20185;-78
2023/03/04 05:53:44;;;;;;;16.97;10.83;;;1.70;99.90;;;;;;5074088;28;20174;-77
2023/03/04 05:56:15;;;;;;;14.97;10.30;;;1.70;99.90;;;;;;5078372;28;20171;-75
2023/03/04 05:58:42;;;;;;;12.90;9.13;;;1.60;99.90;;;;;;5085647;28;20175;-78
2023/03/04 06:01:08;;;;;;;15.70;10.23;;;1.50;99.90;;;;;;5076479;28;20259;-78
2023/03/04 06:03:34;;;;;;;15.17;10.87;;;1.70;99.90;;;;;;5072586;28;20215;-78
2023/03/04 06:06:00;;;;;;;15.03;9.97;;;1.70;99.90;;;;;;5072904;28;20224;-78
2023/03/04 06:08:26;;;;;;;18.67;12.13;;;1.70;99.90;;;;;;5073255;28;20171;-78
2023/03/04 06:10:54;;;;;;;15.23;10.97;;;1.60;99.90;;;;;;5073389;28;20203;-74
2023/03/04 06:13:21;;;;;;;11.70;8.57;;;1.70;99.90;;;;;;5074168;28;20181;-76
2023/03/04 06:15:46;;;;;;;10.10;8.33;;;1.60;99.90;;;;;;5074005;28;20181;-74
2023/03/04 06:18:12;;;;;;;10.30;7.03;;;1.60;99.90;;;;;;5073129;28;20182;-76
2023/03/04 06:20:38;;;;;;;7.80;7.00;;;1.60;99.90;;;;;;5071241;28;20626;-76
2023/03/04 06:23:04;;;;;;;8.57;6.93;;;1.60;99.90;;;;;;5072205;28;20219;-76
2023/03/04 06:25:30;;;;;;;10.13;7.03;;;1.70;99.90;;;;;;5072331;28;20538;-75
2023/03/04 06:27:56;;;;;;;13.07;6.90;;;1.60;99.90;;;;;;5072564;28;20179;-74
2023/03/04 06:30:23;;;;;;;8.03;7.20;;;1.60;99.90;;;;;;5072985;28;20183;-73
2023/03/04 06:32:48;;;;;;;9.07;6.77;;;1.60;99.90;;;;;;5072379;28;20185;-75
2023/03/04 06:35:15;;;;;;;9.13;6.83;;;1.50;99.90;;;;;;5073264;28;20184;-72
2023/03/04 06:37:42;;;;;;;7.73;6.77;;;1.60;99.90;;;;;;5072611;28;20268;-74
2023/03/04 06:40:09;;;;;;;9.70;6.97;;;1.70;99.90;;;;;;5073524;28;20212;-80
2023/03/04 06:42:36;;;;;;;7.57;6.73;;;1.70;99.90;;;;;;5076855;28;20288;-73
2023/03/04 06:45:03;;;;;;;9.27;7.40;;;1.70;99.90;;;;;;5078971;28;20172;-71
2023/03/04 06:47:29;;;;;;;7.90;7.10;;;1.70;99.90;;;;;;5077173;28;20189;-77
2023/03/04 06:49:55;;;;;;;9.23;7.53;;;1.80;99.90;;;;;;5073337;28;20206;-73
2023/03/04 06:52:21;;;;;;;9.63;7.43;;;1.80;99.90;;;;;;5073012;28;20597;-72
2023/03/04 06:54:46;;;;;;;9.13;7.93;;;1.80;99.90;;;;;;5072658;28;20175;-73
2023/03/04 06:57:12;;;;;;;10.23;7.53;;;2.00;99.90;;;;;;5071085;28;20186;-77
2023/03/04 06:59:39;;;;;;;11.00;8.33;;;2.00;99.90;;;;;;5071045;28;20172;-74
2023/03/04 07:02:05;;;;;;;10.37;8.17;;;2.20;99.90;;;;;;5072410;28;20200;-80
2023/03/04 07:04:31;;;;;;;11.13;8.63;;;2.20;99.90;;;;;;5072583;28;20574;-75
2023/03/04 07:06:57;;;;;;;11.07;7.80;;;2.30;99.90;;;;;;5072595;28;20167;-81
2023/03/04 07:09:23;;;;;;;11.10;8.90;;;2.30;99.90;;;;;;5071772;28;20179;-77
2023/03/04 07:11:48;;;;;;;11.30;8.20;;;2.50;99.90;;;;;;5072978;28;20232;-75
2023/03/04 07:14:14;;;;;;;14.50;9.33;;;2.50;99.90;;;;;;5072434;28;20171;-76
2023/03/04 07:16:40;;;;;;;11.87;8.23;;;2.50;99.90;;;;;;5072471;28;20174;-78
2023/03/04 07:19:06;;;;;;;11.50;8.60;;;2.60;99.90;;;;;;5071154;28;20674;-74
2023/03/04 07:21:32;;;;;;;11.73;8.80;;;2.70;99.90;;;;;;5072098;28;20174;-75
2023/03/04 07:23:57;;;;;;;9.77;7.73;;;2.80;99.90;;;;;;5072099;28;20603;-78
2023/03/04 07:26:23;;;;;;;10.93;8.97;;;2.80;99.90;;;;;;5070792;28;20201;-71
2023/03/04 07:28:51;;;;;;;12.87;9.27;;;2.90;99.90;;;;;;5072140;28;20216;-72
2023/03/04 07:31:28;;;;;;;11.77;9.17;;;2.90;99.90;;;;;;5071957;28;20546;-71
2023/03/04 07:34:00;;;;;;;12.97;8.90;;;3.00;99.90;;;;;;5071871;28;20243;-72
2023/03/04 07:36:26;;;;;;;13.03;8.70;;;3.10;99.90;;;;;;5072129;28;20173;-78
2023/03/04 07:38:53;;;;;;;10.70;8.43;;;3.20;99.90;;;;;;5071858;28;20642;-74
2023/03/04 07:41:20;;;;;;;12.20;9.30;;;3.20;99.90;;;;;;5070511;28;20210;-79
2023/03/04 07:43:46;;;;;;;10.47;8.97;;;3.30;99.90;;;;;;5071585;28;20223;-78
2023/03/04 07:46:12;;;;;;;10.57;8.63;;;3.30;99.90;;;;;;5071821;28;20376;-75
2023/03/04 07:48:38;;;;;;;15.23;9.67;;;3.30;99.90;;;;;;5070349;28;20188;-74
2023/03/04 07:51:07;;;;;;;13.40;9.43;;;3.30;99.90;;;;;;5070858;28;20205;-72
2023/03/04 07:53:34;;;;;;;11.30;8.90;;;3.40;99.90;;;;;;5072581;28;20253;-76
2023/03/04 07:55:59;;;;;;;12.73;9.77;;;3.50;99.90;;;;;;5072782;28;20813;-77
2023/03/04 07:58:25;;;;;;;12.37;9.80;;;3.60;99.90;;;;;;5072514;28;20180;-75
2023/03/04 08:00:51;;;;;;;14.07;9.27;;;3.70;99.90;;;;;;5081939;28;20183;-79
2023/03/04 08:03:17;;;;;;;12.40;9.50;;;3.80;99.90;;;;;;5080486;28;20238;-72
2023/03/04 08:05:42;;;;;;;14.13;10.30;;;3.90;99.90;;;;;;5072845;28;20529;-71
2023/03/04 08:08:08;;;;;;;15.13;10.20;;;3.90;99.90;;;;;;5070428;28;20191;-72
2023/03/04 08:10:35;;;;;;;14.33;9.50;;;4.00;99.90;;;;;;5072003;28;20175;-74
2023/03/04 08:13:01;;;;;;;12.70;9.60;;;4.00;99.90;;;;;;5070248;28;20179;-73
2023/03/04 08:15:26;;;;;;;13.53;9.10;;;4.00;99.90;;;;;;5072279;28;20532;-75
2023/03/04 08:17:52;;;;;;;14.03;9.93;;;4.10;99.90;;;;;;5072652;28;20172;-74
2023/03/04 08:20:18;;;;;;;14.30;9.40;;;4.10;99.90;;;;;;5079553;28;20798;-72
2023/03/04 08:22:44;;;;;;;13.00;9.13;;;4.10;99.90;;;;;;5083593;28;20211;-74
2023/03/04 08:25:10;;;;;;;12.67;9.47;;;4.20;99.90;;;;;;5076652;28;20215;-75
2023/03/04 08:27:36;;;;;;;13.73;9.30;;;4.20;99.90;;;;;;5075456;28;20532;-74
2023/03/04 08:30:04;;;;;;;14.17;9.73;;;4.30;99.90;;;;;;5075293;28;20648;-75
2023/03/04 08:32:30;;;;;;;14.10;9.50;;;4.40;99.90;;;;;;5073912;28;20546;-76
2023/03/04 08:34:55;;;;;;;12.97;8.57;;;4.50;99.90;;;;;;5075277;28;20177;-75
2023/03/04 08:37:22;;;;;;;13.87;8.50;;;4.60;99.90;;;;;;5075185;28;20580;-79
2023/03/04 08:39:47;;;;;;;14.33;9.10;;;4.60;99.90;;;;;;5074995;28;20262;-72
2023/03/04 08:42:13;;;;;;;11.87;8.90;;;4.70;99.90;;;;;;5074492;28;20321;-72
2023/03/04 08:44:39;;;;;;;15.90;9.07;;;4.80;99.90;;;;;;5075035;28;20159;-78
2023/03/04 08:47:08;;;;;;;11.53;8.83;;;5.00;99.90;;;;;;5073679;28;20186;-73
2023/03/04 08:49:33;;;;;;;13.27;8.80;;;5.00;99.90;;;;;;5074832;28;20179;-73
2023/03/04 08:51:59;;;;;;;12.07;9.10;;;5.10;99.90;;;;;;5074991;28;20175;-78
2023/03/04 08:54:25;;;;;;;14.60;10.20;;;5.20;99.90;;;;;;5073246;28;20191;-75
2023/03/04 08:56:51;;;;;;;14.83;8.77;;;5.20;99.90;;;;;;5074713;28;20171;-74
2023/03/04 08:59:17;;;;;;;13.30;8.23;;;5.30;99.90;;;;;;5074650;28;20528;-73
2023/03/04 09:01:43;;;;;;;17.30;8.73;;;5.50;99.90;;;;;;5074647;28;20175;-81
2023/03/04 09:04:09;;;;;;;14.53;9.13;;;5.50;99.90;;;;;;5074597;28;20656;-74
2023/03/04 09:06:35;;;;;;;12.93;8.90;;;5.70;99.90;;;;;;5074723;28;20176;-78
2023/03/04 09:09:01;;;;;;;9.70;8.00;;;5.70;99.90;;;;;;5073142;28;20203;-78
2023/03/04 09:11:27;;;;;;;11.93;8.73;;;5.70;99.90;;;;;;5076439;28;20171;-77
2023/03/04 09:13:52;;;;;;;11.47;9.33;;;5.90;99.90;;;;;;5074637;28;20175;-73
2023/03/04 09:16:18;;;;;;;13.77;8.93;;;6.00;99.90;;;;;;5074773;28;20179;-74
2023/03/04 09:18:44;;;;;;;10.13;8.07;;;6.10;99.90;;;;;;5073196;28;20203;-80
2023/03/04 09:21:10;;;;;;;13.70;8.67;;;6.20;99.90;;;;;;5074542;28;20291;-71
2023/03/04 09:23:36;;;;;;;11.67;8.43;;;6.20;99.90;;;;;;5074733;28;20303;-77
2023/03/04 09:26:23;;;;;;;11.77;8.07;;;6.20;99.90;;;;;;5074756;28;20177;-73
2023/03/04 09:28:56;;;;;;;12.53;8.20;;;6.10;99.90;;;;;;5074392;28;20161;-76
2023/03/04 09:31:22;;;;;;;10.70;7.87;;;6.20;99.90;;;;;;5073297;28;20534;-76
2023/03/04 09:33:48;;;;;;;13.57;8.80;;;6.20;99.90;;;;;;5074055;28;20546;-76
2023/03/04 09:36:14;;;;;;;14.00;8.23;;;6.40;99.90;;;;;;5074261;28;20179;-77
2023/03/04 09:38:41;;;;;;;10.60;7.40;;;6.50;99.90;;;;;;5074133;28;20181;-75
2023/03/04 09:41:09;;;;;;;10.07;7.20;;;6.50;99.90;;;;;;5073655;28;20177;-79
2023/03/04 09:43:38;;;;;;;7.80;6.53;;;6.60;99.90;;;;;;5073474;28;20593;-74
2023/03/04 09:46:13;;;;;;;9.33;7.07;;;6.70;99.90;;;;;;5073989;28;20563;-72
2023/03/04 09:48:51;;;;;;;10.70;7.10;;;6.80;99.90;;;;;;5073081;28;20187;-71
2023/03/04 09:51:35;;;;;;;7.97;5.90;;;6.80;99.90;;;;;;5074186;28;20169;-75
2023/03/04 09:54:08;;;;;;;9.23;6.40;;;7.00;99.90;;;;;;5073763;28;20703;-75
2023/03/04 09:56:37;;;;;;;13.40;6.97;;;7.10;99.90;;;;;;5079668;28;20170;-71
2023/03/04 09:59:12;;;;;;;8.40;6.30;;;7.10;99.90;;;;;;5082738;28;20227;-76
2023/03/04 10:01:48;;;;;;;8.43;6.03;;;7.30;99.90;;;;;;5075772;28;20256;-80
2023/03/04 10:04:25;;;;;;;7.00;6.03;;;7.40;99.90;;;;;;5078975;28;20173;-80
2023/03/04 10:06:53;;;;;;;5.93;5.23;;;7.60;99.90;;;;;;5086235;28;20170;-77
2023/03/04 10:09:41;;;;;;;8.57;5.80;;;7.70;99.90;;;;;;5077376;28;20269;-82
2023/03/04 10:12:12;;;;;;;8.90;4.70;;;7.90;99.90;;;;;;5076364;28;20162;-80
2023/03/04 10:15:01;;;;;;;8.17;4.60;;;8.10;99.90;;;;;;5073644;28;20166;-78
2023/03/04 10:17:32;;;;;;;6.63;5.17;;;8.20;99.90;;;;;;5074143;28;20163;-77
2023/03/04 10:20:10;;;;;;;5.93;5.37;;;8.30;99.90;;;;;;5075883;28;20191;-79
2023/03/04 10:22:50;;;;;;;7.40;5.63;;;8.50;99.90;;;;;;5073420;28;20199;-86
2023/03/04 10:25:24;;;;;;;5.97;5.10;;;8.50;99.90;;;;;;5072191;28;20170;-77
2023/03/04 10:27:57;;;;;;;5.63;4.50;;;8.60;99.90;;;;;;5074068;28;20161;-82
2023/03/04 10:30:59;;;;;;;4.97;4.47;;;8.70;99.90;;;;;;5075286;28;20579;-82
2023/03/04 10:33:31;;;;;;;6.00;4.37;;;8.90;99.90;;;;;;5076056;28;20254;-85
2023/03/04 10:36:01;;;;;;;6.87;4.03;;;9.00;99.90;;;;;;5074844;28;20198;-82
2023/03/04 10:38:31;;;;;;;4.00;3.63;;;8.90;99.90;;;;;;5075190;28;20182;-83
2023/03/04 10:40:57;;;;;;;8.50;3.50;;;9.00;99.70;;;;;;5075759;28;20181;-79
2023/03/04 10:43:24;;;;;;;5.07;4.17;;;9.10;99.00;;;;;;5074564;28;20230;-85
2023/03/04 10:45:55;;;;;;;5.30;3.97;;;9.10;98.50;;;;;;5077103;28;20203;-85
2023/03/04 10:48:25;;;;;;;6.90;3.90;;;9.20;98.50;;;;;;5076009;28;20155;-75
2023/03/04 10:50:51;;;;;;;7.70;3.90;;;9.20;98.70;;;;;;5072881;28;20169;-76
2023/03/04 10:53:27;;;;;;;8.53;3.93;;;9.40;98.50;;;;;;5072189;28;20171;-73
2023/03/04 10:55:53;;;;;;;4.03;3.47;;;9.40;98.40;;;;;;5072675;28;20691;-79
2023/03/04 10:58:20;;;;;;;4.53;3.90;;;9.50;98.60;;;;;;5072529;28;20170;-78
2023/03/04 11:01:02;;;;;;;4.50;4.10;;;9.60;98.20;;;;;;5072583;28;20291;-80
2023/03/04 11:03:34;;;;;;;6.73;4.17;;;9.70;97.80;;;;;;5071982;28;20752;-80
2023/03/04 11:06:31;;;;;;;7.00;3.57;;;9.80;97.40;;;;;;5072748;28;20172;-72
2023/03/04 11:08:58;;;;;;;4.83;3.70;;;9.80;97.20;;;;;;5030078;28;20189;-76
2023/03/04 11:11:36;;;;;;;4.90;3.67;;;9.90;96.70;;;;;;5030093;28;20177;-78
2023/03/04 11:14:13;;;;;;;8.50;4.00;;;10.00;96.10;;;;;;5013304;28;20198;-74
2023/03/04 11:16:39;;;;;;;4.27;3.47;;;10.00;95.40;;;;;;5030428;28;20215;-76
2023/03/04 11:19:14;;;;;;;3.70;3.37;;;9.90;95.60;;;;;;5030293;28;20686;-73
2023/03/04 11:21:41;;;;;;;5.53;3.70;;;10.10;95.00;;;;;;5015128;28;20176;-70
2023/03/04 11:24:09;;;;;;;8.03;3.73;;;10.10;94.80;;;;;;5030418;28;20196;-74
2023/03/04 11:26:54;;;;;;;6.30;3.43;;;10.20;94.50;;;;;;5031094;28;20294;-71
2023/03/04 11:29:42;;;;;;;3.97;2.93;;;10.20;94.70;;;;;;5030961;28;20170;-71
2023/03/04 11:32:23;;;;;;;4.00;3.40;;;10.30;94.10;;;;;;5044990;28;20339;-73
2023/03/04 11:34:54;;;;;;;6.27;3.43;;;10.40;94.40;;;;;;5046282;28;20171;-75
2023/03/04 11:37:32;;;;;;;3.40;3.00;;;10.40;94.20;;;;;;5039787;28;20664;-72
2023/03/04 11:40:04;;;;;;;6.67;3.47;;;10.40;94.30;;;;;;5015558;28;20600;-72
2023/03/04 11:42:47;;;;;;;7.37;3.30;;;10.40;94.10;;;;;;5029024;28;20318;-73
2023/03/04 11:45:24;;;;;;;5.73;3.93;;;10.50;93.90;;;;;;5048791;28;20186;-71
2023/03/04 11:48:07;;;;;;;8.80;4.10;;;10.50;93.70;;;;;;5071962;28;20216;-75
2023/03/04 11:51:11;;;;;;;6.27;3.47;;;10.50;93.90;;;;;;5075112;28;20165;-72
2023/03/04 11:53:56;;;;;;;6.33;3.47;;;10.50;93.60;;;;;;5034208;28;20614;-72
2023/03/04 11:56:36;;;;;;;5.73;3.80;;;10.70;93.40;;;;;;5071659;28;20161;-72
2023/03/04 11:59:29;;;;;;;4.30;3.10;;;10.70;93.30;;;;;;5070198;28;20644;-74
2023/03/04 12:02:04;;;;;;;6.03;2.93;;;10.70;93.70;;;;;;5072636;28;20205;-72
2023/03/04 12:04:43;;;;;;;3.23;2.87;;;10.90;93.60;;;;;;5072349;28;20619;-71
2023/03/04 12:07:32;;;;;;;7.33;3.70;;;11.00;93.80;;;;;;5072153;28;20248;-72
2023/03/04 12:10:03;;;;;;;3.80;3.03;;;10.90;93.30;;;;;;5075527;28;20196;-81
2023/03/04 12:12:51;;;;;;;11.10;3.67;;;10.90;93.10;;;;;;5089184;28;20160;-79
2023/03/04 12:15:26;;;;;;;4.67;3.40;;;11.00;92.80;;;;;;5082979;28;20176;-82
2023/03/04 12:18:20;;;;;;;3.63;3.33;;;11.00;93.00;;;;;;5075394;28;20176;-85
2023/03/04 12:20:56;;;;;;;6.27;4.30;;;11.10;92.60;;;;;;5072758;28;20166;-73
2023/03/04 12:23:40;;;;;;;9.23;3.77;;;11.30;93.10;;;;;;5071491;28;20222;-78
2023/03/04 12:26:21;;;;;;;4.80;3.43;;;11.30;92.70;;;;;;5071743;28;20175;-79
2023/03/04 12:29:23;;;;;;;6.73;3.03;;;11.30;92.50;;;;;;5071762;28;20172;-80
2023/03/04 12:32:01;;;;;;;8.80;3.10;;;11.20;92.30;;;;;;5071439;28;20263;-77
2023/03/04 12:34:41;;;;;;;4.87;3.50;;;11.20;92.40;;;;;;5070605;28;20224;-79
2023/03/04 12:37:22;;;;;;;5.80;3.27;;;11.30;92.40;;;;;;5071637;28;20163;-75
2023/03/04 12:39:54;;;;;;;11.40;3.20;;;11.30;92.30;;;;;;5070054;28;20580;-72
2023/03/04 12:42:28;;;;;;;4.77;3.17;;;11.40;92.20;;;;;;5070734;28;20233;-72
2023/03/04 12:45:19;;;;;;;6.50;3.17;;;11.40;91.90;;;;;;5070859;28;20177;-73
2023/03/04 12:47:53;;;;;;;8.60;3.17;;;11.40;91.70;;;;;;5071052;28;20168;-75
2023/03/04 12:50:40;;;;;;;8.07;3.13;;;11.40;91.80;;;;;;5071205;28;20200;-72
2023/03/04 12:53:18;;;;;;;4.93;3.10;;;11.30;91.70;;;;;;5069657;28;20262;-76
2023/03/04 12:55:46;;;;;;;4.30;3.00;;;11.40;91.70;;;;;;5070017;28;20522;-72
2023/03/04 12:58:19;;;;;;;5.83;3.20;;;11.50;91.80;;;;;;5071347;28;20569;-72